SCL Basilisk — HBLG — position and weather

sailwx.info

Track history (hours):
 
Tides and Currents Weather Stations Pressure Air Temp Water Temp Dewpoint Dewpoint Depression Visibility Wind Speed Wind Dir Waves Ship Positions

SCL Basilisk

Last reported at 2017-Sep-20 02:20 UTC. Time now 2017-Sep-25 13:38 UTC.
Position N 25°26' W 079°40'.

Length 161 m; draft 9 m.

Type: Cargo ship. MMSI: 269021000.

Date/timePositionNaut miles runAvg speedWind from/ knotsBaromVisibWave heightAir tempDewpointWater temp
2017-Sep-20 02:20N 25°26' W 079°40'411.2
2017-Sep-20 02:00N 25°30' W 079°40'511.0
2017-Sep-20 01:30N 25°36' W 079°40'510.4
2017-Sep-20 01:00N 25°41' W 079°40'510.3
2017-Sep-20 00:30N 25°46' W 079°40'5 9.8
2017-Sep-20 00:00N 25°51' W 079°41'4 7.8
2017-Sep-19 23:30N 25°55' W 079°41'3 6.1
2017-Sep-19 23:00N 25°57' W 079°44'4 8.0
2017-Sep-19 22:30N 25°59' W 079°48'4 8.3
2017-Sep-19 22:00N 26°00' W 079°52'5 9.5
2017-Sep-19 21:30N 26°02' W 079°57'611.0
2017-Sep-19 21:00N 26°04' W 080°03'4 8.4
2017-Sep-19 20:30N 26°06' W 080°07'1 1.1
2017-Sep-19 20:00N 26°05' W 080°07'0 0.0
2017-Sep-19 19:30N 26°05' W 080°07'0 0.0
2017-Sep-19 19:00N 26°05' W 080°07'0 0.0
2017-Sep-19 18:30N 26°05' W 080°07'0 0.0
2017-Sep-19 18:00N 26°05' W 080°07'0 0.0
2017-Sep-19 17:30N 26°05' W 080°07'0 0.0
2017-Sep-19 17:00N 26°05' W 080°07'0 0.0
2017-Sep-19 16:21N 26°05' W 080°07'0 0.0
2017-Sep-19 15:51N 26°05' W 080°07'0 0.0
2017-Sep-19 15:21N 26°05' W 080°07'0 0.0
2017-Sep-19 14:54N 26°05' W 080°07'0 0.0
2017-Sep-19 14:24N 26°05' W 080°07'0 0.0
2017-Sep-19 13:54N 26°05' W 080°07'0 0.0
2017-Sep-19 13:21N 26°05' W 080°07'0 0.0
2017-Sep-19 12:54N 26°05' W 080°07'0 0.0
2017-Sep-19 12:27N 26°05' W 080°07'0 0.0
2017-Sep-19 11:54N 26°05' W 080°07'0 0.0
2017-Sep-19 11:27N 26°05' W 080°07'0 0.0
2017-Sep-19 10:57N 26°05' W 080°07'0 0.0
2017-Sep-19 10:27N 26°05' W 080°07'0 0.0
2017-Sep-19 09:57N 26°05' W 080°07'0 0.0
2017-Sep-19 09:30N 26°05' W 080°07'0 0.0
2017-Sep-19 09:00N 26°05' W 080°07'0 0.0
2017-Sep-19 08:30N 26°05' W 080°07'0 0.0
2017-Sep-19 08:00N 26°05' W 080°07'0 0.0
2017-Sep-19 07:30N 26°05' W 080°07'0 0.0
2017-Sep-19 07:00N 26°05' W 080°07'0 0.0
2017-Sep-19 06:30N 26°05' W 080°07'0 0.0
2017-Sep-19 06:00N 26°05' W 080°07'0 0.0
2017-Sep-19 05:30N 26°05' W 080°07'0 0.0
2017-Sep-19 05:00N 26°05' W 080°07'0 0.0
2017-Sep-19 04:30N 26°05' W 080°07'0 0.0
2017-Sep-19 04:00N 26°05' W 080°07'0 0.0
2017-Sep-19 03:30N 26°05' W 080°07'0 0.0
2017-Sep-19 03:00N 26°05' W 080°07'0 0.0
2017-Sep-19 02:21N 26°05' W 080°07'0 0.0
2017-Sep-19 01:51N 26°05' W 080°07'0 0.0
2017-Sep-19 01:24N 26°05' W 080°07'0 0.0
2017-Sep-19 00:54N 26°05' W 080°07'0 0.0
2017-Sep-19 00:24N 26°05' W 080°07'0 0.0
2017-Sep-18 23:54N 26°05' W 080°07'0 0.0
2017-Sep-18 15:33N 26°05' W 080°07'0 0.1
2017-Sep-18 15:30N 26°05' W 080°07'0 0.0
2017-Sep-18 15:00N 26°05' W 080°07'0 0.0
2017-Sep-18 14:30N 26°05' W 080°07'0 0.0
2017-Sep-18 14:00N 26°05' W 080°07'0 0.0
2017-Sep-18 13:30N 26°05' W 080°07'0 0.0
2017-Sep-18 12:51N 26°05' W 080°07'0 0.0
2017-Sep-18 12:21N 26°05' W 080°07'0 0.0
2017-Sep-18 11:51N 26°05' W 080°07'0 0.0
2017-Sep-18 11:24N 26°05' W 080°07'0 0.0
2017-Sep-18 10:54N 26°05' W 080°07'0 0.0
2017-Sep-18 10:24N 26°05' W 080°07'0 0.0
2017-Sep-18 09:54N 26°05' W 080°07'0 0.0
2017-Sep-18 09:24N 26°05' W 080°07'0 0.0
2017-Sep-18 08:54N 26°05' W 080°07'0 0.0
2017-Sep-18 08:27N 26°05' W 080°07'0 0.0
2017-Sep-18 07:57N 26°05' W 080°07'0 0.0
2017-Sep-18 07:27N 26°05' W 080°07'0 0.0
2017-Sep-18 06:57N 26°05' W 080°07'0 0.0
2017-Sep-18 06:27N 26°05' W 080°07'0 0.0
2017-Sep-18 06:00N 26°05' W 080°07'0 0.0
2017-Sep-18 05:30N 26°05' W 080°07'0 0.0
2017-Sep-18 05:00N 26°05' W 080°07'0 0.0
2017-Sep-17 13:09N 26°05' W 080°07'0 0.0
2017-Sep-17 13:00N 26°05' W 080°07'0 0.0
2017-Sep-17 12:30N 26°05' W 080°07'0 0.0
2017-Sep-17 12:00N 26°05' W 080°07'0 0.0
2017-Sep-17 11:30N 26°05' W 080°07'0 0.0
2017-Sep-17 11:00N 26°05' W 080°07'0 0.0
2017-Sep-17 10:30N 26°05' W 080°07'0 0.0
2017-Sep-17 10:00N 26°05' W 080°07'0 0.0
2017-Sep-17 09:30N 26°05' W 080°07'0 0.0
2017-Sep-17 09:00N 26°05' W 080°07'0 0.0
2017-Sep-17 08:30N 26°05' W 080°07'0 0.0
2017-Sep-17 08:00N 26°05' W 080°07'0 0.0
2017-Sep-17 07:30N 26°05' W 080°07'0 0.0
2017-Sep-17 07:00N 26°05' W 080°07'0 0.0
2017-Sep-17 06:30N 26°05' W 080°07'0 0.0
2017-Sep-17 06:00N 26°05' W 080°07'0 0.0
2017-Sep-17 05:30N 26°05' W 080°07'0 0.0
2017-Sep-17 05:00N 26°05' W 080°07'0 0.0
2017-Sep-17 04:30N 26°05' W 080°07'0 0.0
2017-Sep-17 04:00N 26°05' W 080°07'0 0.0
2017-Sep-17 03:30N 26°05' W 080°07'0 0.0
2017-Sep-17 03:00N 26°05' W 080°07'0 0.0
2017-Sep-17 02:30N 26°05' W 080°07'0 0.0
2017-Sep-17 01:57N 26°05' W 080°07'0 0.0
2017-Sep-17 01:30N 26°05' W 080°07'0 0.0
2017-Sep-17 00:57N 26°05' W 080°07'0 0.0
2017-Sep-17 00:30N 26°05' W 080°07'0 0.0
2017-Sep-17 00:00N 26°05' W 080°07'0 0.0
2017-Sep-16 23:30N 26°05' W 080°07'0 0.0
2017-Sep-16 23:00N 26°05' W 080°07'0 0.0
2017-Sep-16 22:30N 26°05' W 080°07'0 0.0
2017-Sep-16 22:00N 26°05' W 080°07'0 0.0
2017-Sep-16 21:30N 26°05' W 080°07'0 0.0
2017-Sep-16 20:57N 26°05' W 080°07'0 0.0
2017-Sep-16 20:27N 26°05' W 080°07'0 0.0
2017-Sep-16 20:00N 26°05' W 080°07'0 0.0
2017-Sep-16 19:30N 26°05' W 080°07'0 0.0
2017-Sep-16 19:00N 26°05' W 080°07'0 0.0
2017-Sep-16 18:30N 26°05' W 080°07'0 0.0
2017-Sep-16 18:00N 26°05' W 080°07'2 4.4
2017-Sep-16 17:31N 26°06' W 080°05'3 6.7
2017-Sep-16 17:00N 26°05' W 080°01'2 3.1
2017-Sep-16 16:30N 26°04' W 079°60'2 3.3
2017-Sep-16 16:00N 26°06' W 080°00'2 3.2
2017-Sep-16 15:30N 26°07' W 079°59'1 1.5
2017-Sep-16 15:00N 26°06' W 079°59'1 1.3
2017-Sep-16 14:30N 26°06' W 079°59'1 1.6
2017-Sep-16 14:00N 26°05' W 079°58'1 1.5
2017-Sep-16 13:30N 26°04' W 079°58'0 1.0
2017-Sep-16 13:00N 26°04' W 079°58'0 0.9
2017-Sep-16 12:30N 26°04' W 079°58'2 4.9
2017-Sep-16 12:00N 26°06' W 079°59'1 1.4
2017-Sep-16 11:30N 26°06' W 079°60'1 1.4
2017-Sep-16 11:01N 26°06' W 079°60'2 4.6
2017-Sep-16 10:30N 26°04' W 079°58'4 7.5
2017-Sep-16 10:00N 26°02' W 079°54'4 7.4
2017-Sep-16 09:30N 26°01' W 079°51'4 7.3
2017-Sep-16 09:00N 25°60' W 079°47'4 7.3
2017-Sep-16 08:30N 25°58' W 079°43'5 9.3
2017-Sep-16 08:00N 25°54' W 079°40'612.6
2017-Sep-16 07:30N 25°48' W 079°39'612.6
2017-Sep-16 07:00N 25°42' W 079°38'712.4
2017-Sep-16 06:26N 25°35' W 079°38'  
2017-Sep-12 06:19N 29°49' W 093°21'310.5
2017-Sep-12 06:01N 29°52' W 093°21'5 9.4
2017-Sep-12 05:29N 29°57' W 093°20'4 8.1
2017-Sep-12 05:00N 30°01' W 093°20'4 7.9
2017-Sep-12 04:31N 30°05' W 093°20'4 7.3
2017-Sep-12 04:01N 30°08' W 093°20'2 4.3
2017-Sep-12 03:31N 30°10' W 093°19'3 5.0
2017-Sep-12 03:01N 30°12' W 093°17'1 3.0
2017-Sep-12 02:30N 30°13' W 093°15'0 0.0
2017-Sep-12 01:58N 30°13' W 093°15'0 0.0
2017-Sep-12 01:28N 30°13' W 093°15'0 0.0
2017-Sep-12 00:58N 30°13' W 093°15'0 0.0
2017-Sep-12 00:28N 30°13' W 093°15'0 0.0
2017-Sep-11 23:55N 30°13' W 093°15'0 0.0
2017-Sep-11 23:28N 30°13' W 093°15'0 0.0
2017-Sep-11 22:58N 30°13' W 093°15'0 0.0
2017-Sep-11 22:28N 30°13' W 093°15'0 0.0
2017-Sep-11 21:58N 30°13' W 093°15'0 0.0
2017-Sep-11 21:28N 30°13' W 093°15'0 0.0
2017-Sep-11 20:58N 30°13' W 093°15'0 0.0
2017-Sep-11 20:28N 30°13' W 093°15'0 0.0
2017-Sep-11 19:58N 30°13' W 093°15'0 0.0
2017-Sep-11 19:28N 30°13' W 093°15'0 0.0
2017-Sep-11 18:58N 30°13' W 093°15'0 0.0
2017-Sep-11 18:28N 30°13' W 093°15'0 0.0
2017-Sep-11 17:55N 30°13' W 093°15'0 0.0
2017-Sep-11 17:28N 30°13' W 093°15'0 0.0
2017-Sep-11 16:55N 30°13' W 093°15'0 0.0
2017-Sep-11 16:28N 30°13' W 093°15'0 0.0
2017-Sep-11 15:58N 30°13' W 093°15'0 0.0
2017-Sep-11 15:28N 30°13' W 093°15'0 0.0
2017-Sep-11 14:52N 30°13' W 093°15'0 0.0
2017-Sep-11 14:28N 30°13' W 093°15'0 0.0
2017-Sep-11 13:58N 30°13' W 093°15'0 0.0
2017-Sep-11 13:25N 30°13' W 093°15'0 0.0
2017-Sep-11 12:01N 30°13' W 093°15'0 0.0
2017-Sep-11 11:55N 30°13' W 093°15'0 0.0
2017-Sep-11 11:28N 30°13' W 093°15'0 0.0
2017-Sep-11 10:58N 30°13' W 093°15'0 0.0
2017-Sep-11 10:10N 30°13' W 093°15'0 0.0
2017-Sep-11 09:55N 30°13' W 093°15'0 0.0
2017-Sep-11 09:28N 30°13' W 093°15'0 0.0
2017-Sep-11 08:58N 30°13' W 093°15'0 0.0
2017-Sep-11 08:28N 30°13' W 093°16'0 0.0
2017-Sep-11 07:58N 30°13' W 093°15'0 0.0
2017-Sep-11 07:28N 30°13' W 093°15'0 0.0
2017-Sep-11 06:37N 30°13' W 093°15'0 0.0
2017-Sep-11 05:34N 30°13' W 093°15'0 0.0
2017-Sep-11 05:28N 30°13' W 093°15'0 0.0
2017-Sep-11 04:58N 30°13' W 093°15'0 0.0
2017-Sep-11 04:28N 30°13' W 093°15'0 0.0
2017-Sep-11 03:52N 30°13' W 093°15'0 0.0
2017-Sep-11 03:28N 30°13' W 093°15'0 0.0
2017-Sep-11 02:55N 30°13' W 093°15'0 0.0
2017-Sep-11 02:28N 30°13' W 093°15'0 0.0
2017-Sep-11 01:55N 30°13' W 093°15'0 0.0
2017-Sep-11 01:28N 30°13' W 093°15'0 0.0
2017-Sep-11 00:58N 30°13' W 093°15'0 0.0
2017-Sep-11 00:28N 30°13' W 093°15'0 0.0
2017-Sep-10 23:58N 30°13' W 093°15'0 0.0
2017-Sep-10 23:28N 30°13' W 093°15'0 0.0
2017-Sep-10 22:58N 30°13' W 093°15'0 0.0
2017-Sep-10 22:25N 30°13' W 093°15'0 0.0
2017-Sep-10 21:58N 30°13' W 093°15'0 0.0
2017-Sep-10 21:25N 30°13' W 093°15'0 0.0
2017-Sep-10 20:55N 30°13' W 093°15'0 0.0
2017-Sep-10 20:28N 30°13' W 093°15'0 0.0
2017-Sep-10 19:58N 30°13' W 093°15'0 0.0
2017-Sep-10 19:28N 30°13' W 093°15'0 0.0
2017-Sep-10 18:58N 30°13' W 093°15'0 0.0
2017-Sep-10 18:28N 30°13' W 093°15'0 0.0
2017-Sep-10 17:58N 30°13' W 093°15'0 0.0
2017-Sep-10 17:28N 30°13' W 093°15'0 0.0
2017-Sep-10 16:58N 30°13' W 093°15'0 0.0
2017-Sep-10 16:28N 30°13' W 093°15'0 0.0
2017-Sep-10 15:58N 30°13' W 093°15'0 0.0
2017-Sep-10 15:25N 30°13' W 093°15'0 0.0
2017-Sep-10 14:58N 30°13' W 093°15'0 0.0
2017-Sep-10 13:58N 30°13' W 093°15'0 0.0
2017-Sep-10 12:49N 30°13' W 093°15'0 0.0
2017-Sep-10 12:28N 30°13' W 093°15'0 0.0
2017-Sep-10 10:16N 30°13' W 093°15'0 0.0
2017-Sep-10 09:58N 30°13' W 093°15'0 0.0
2017-Sep-10 09:28N 30°13' W 093°15'0 0.0
2017-Sep-10 08:55N 30°13' W 093°15'0 0.0
2017-Sep-10 08:28N 30°13' W 093°16'0 0.0
2017-Sep-10 07:58N 30°13' W 093°15'0 0.0
2017-Sep-10 07:28N 30°13' W 093°15'0 0.0
2017-Sep-10 06:58N 30°13' W 093°15'0 0.0
2017-Sep-10 06:28N 30°13' W 093°15'0 0.0
2017-Sep-10 05:55N 30°13' W 093°15'0 0.0
2017-Sep-10 05:28N 30°13' W 093°15'0 0.0
2017-Sep-10 04:58N 30°13' W 093°15'0 0.0
2017-Sep-10 04:25N 30°13' W 093°15'0 0.0
2017-Sep-10 03:58N 30°13' W 093°15'0 0.0
2017-Sep-10 03:28N 30°13' W 093°15'0 0.0
2017-Sep-10 02:58N 30°13' W 093°15'0 0.0
2017-Sep-10 02:28N 30°13' W 093°15'  
Track history (hours):
 
Tides and Currents Weather Stations Pressure Air Temp Water Temp Dewpoint Dewpoint Depression Visibility Wind Speed Wind Dir Waves Ship Positions

SCL Basilisk

Last reported at 2017-Sep-20 02:20 UTC. Time now 2017-Sep-25 13:38 UTC.
Position N 25°26' W 079°40'.

Length 161 m; draft 9 m.

Type: Cargo ship. MMSI: 269021000.

Date/timePositionNaut miles runAvg speedWind from/ knotsBaromVisibWave heightAir tempDewpointWater temp
2017-Sep-20 02:20N 25°26' W 079°40'411.2
2017-Sep-20 02:00N 25°30' W 079°40'511.0
2017-Sep-20 01:30N 25°36' W 079°40'510.4
2017-Sep-20 01:00N 25°41' W 079°40'510.3
2017-Sep-20 00:30N 25°46' W 079°40'5 9.8
2017-Sep-20 00:00N 25°51' W 079°41'4 7.8
2017-Sep-19 23:30N 25°55' W 079°41'3 6.1
2017-Sep-19 23:00N 25°57' W 079°44'4 8.0
2017-Sep-19 22:30N 25°59' W 079°48'4 8.3
2017-Sep-19 22:00N 26°00' W 079°52'5 9.5
2017-Sep-19 21:30N 26°02' W 079°57'611.0
2017-Sep-19 21:00N 26°04' W 080°03'4 8.4
2017-Sep-19 20:30N 26°06' W 080°07'1 1.1
2017-Sep-19 20:00N 26°05' W 080°07'0 0.0
2017-Sep-19 19:30N 26°05' W 080°07'0 0.0
2017-Sep-19 19:00N 26°05' W 080°07'0 0.0
2017-Sep-19 18:30N 26°05' W 080°07'0 0.0
2017-Sep-19 18:00N 26°05' W 080°07'0 0.0
2017-Sep-19 17:30N 26°05' W 080°07'0 0.0
2017-Sep-19 17:00N 26°05' W 080°07'0 0.0
2017-Sep-19 16:21N 26°05' W 080°07'0 0.0
2017-Sep-19 15:51N 26°05' W 080°07'0 0.0
2017-Sep-19 15:21N 26°05' W 080°07'0 0.0
2017-Sep-19 14:54N 26°05' W 080°07'0 0.0
2017-Sep-19 14:24N 26°05' W 080°07'0 0.0
2017-Sep-19 13:54N 26°05' W 080°07'0 0.0
2017-Sep-19 13:21N 26°05' W 080°07'0 0.0
2017-Sep-19 12:54N 26°05' W 080°07'0 0.0
2017-Sep-19 12:27N 26°05' W 080°07'0 0.0
2017-Sep-19 11:54N 26°05' W 080°07'0 0.0
2017-Sep-19 11:27N 26°05' W 080°07'0 0.0
2017-Sep-19 10:57N 26°05' W 080°07'0 0.0
2017-Sep-19 10:27N 26°05' W 080°07'0 0.0
2017-Sep-19 09:57N 26°05' W 080°07'0 0.0
2017-Sep-19 09:30N 26°05' W 080°07'0 0.0
2017-Sep-19 09:00N 26°05' W 080°07'0 0.0
2017-Sep-19 08:30N 26°05' W 080°07'0 0.0
2017-Sep-19 08:00N 26°05' W 080°07'0 0.0
2017-Sep-19 07:30N 26°05' W 080°07'0 0.0
2017-Sep-19 07:00N 26°05' W 080°07'0 0.0
2017-Sep-19 06:30N 26°05' W 080°07'0 0.0
2017-Sep-19 06:00N 26°05' W 080°07'0 0.0
2017-Sep-19 05:30N 26°05' W 080°07'0 0.0
2017-Sep-19 05:00N 26°05' W 080°07'0 0.0
2017-Sep-19 04:30N 26°05' W 080°07'0 0.0
2017-Sep-19 04:00N 26°05' W 080°07'0 0.0
2017-Sep-19 03:30N 26°05' W 080°07'0 0.0
2017-Sep-19 03:00N 26°05' W 080°07'0 0.0
2017-Sep-19 02:21N 26°05' W 080°07'0 0.0
2017-Sep-19 01:51N 26°05' W 080°07'0 0.0
2017-Sep-19 01:24N 26°05' W 080°07'0 0.0
2017-Sep-19 00:54N 26°05' W 080°07'0 0.0
2017-Sep-19 00:24N 26°05' W 080°07'0 0.0
2017-Sep-18 23:54N 26°05' W 080°07'0 0.0
2017-Sep-18 15:33N 26°05' W 080°07'0 0.1
2017-Sep-18 15:30N 26°05' W 080°07'0 0.0
2017-Sep-18 15:00N 26°05' W 080°07'0 0.0
2017-Sep-18 14:30N 26°05' W 080°07'0 0.0
2017-Sep-18 14:00N 26°05' W 080°07'0 0.0
2017-Sep-18 13:30N 26°05' W 080°07'0 0.0
2017-Sep-18 12:51N 26°05' W 080°07'0 0.0
2017-Sep-18 12:21N 26°05' W 080°07'0 0.0
2017-Sep-18 11:51N 26°05' W 080°07'0 0.0
2017-Sep-18 11:24N 26°05' W 080°07'0 0.0
2017-Sep-18 10:54N 26°05' W 080°07'0 0.0
2017-Sep-18 10:24N 26°05' W 080°07'0 0.0
2017-Sep-18 09:54N 26°05' W 080°07'0 0.0
2017-Sep-18 09:24N 26°05' W 080°07'0 0.0
2017-Sep-18 08:54N 26°05' W 080°07'0 0.0
2017-Sep-18 08:27N 26°05' W 080°07'0 0.0
2017-Sep-18 07:57N 26°05' W 080°07'0 0.0
2017-Sep-18 07:27N 26°05' W 080°07'0 0.0
2017-Sep-18 06:57N 26°05' W 080°07'0 0.0
2017-Sep-18 06:27N 26°05' W 080°07'0 0.0
2017-Sep-18 06:00N 26°05' W 080°07'0 0.0
2017-Sep-18 05:30N 26°05' W 080°07'0 0.0
2017-Sep-18 05:00N 26°05' W 080°07'0 0.0
2017-Sep-17 13:09N 26°05' W 080°07'0 0.0
2017-Sep-17 13:00N 26°05' W 080°07'0 0.0
2017-Sep-17 12:30N 26°05' W 080°07'0 0.0
2017-Sep-17 12:00N 26°05' W 080°07'0 0.0
2017-Sep-17 11:30N 26°05' W 080°07'0 0.0
2017-Sep-17 11:00N 26°05' W 080°07'0 0.0
2017-Sep-17 10:30N 26°05' W 080°07'0 0.0
2017-Sep-17 10:00N 26°05' W 080°07'0 0.0
2017-Sep-17 09:30N 26°05' W 080°07'0 0.0
2017-Sep-17 09:00N 26°05' W 080°07'0 0.0
2017-Sep-17 08:30N 26°05' W 080°07'0 0.0
2017-Sep-17 08:00N 26°05' W 080°07'0 0.0
2017-Sep-17 07:30N 26°05' W 080°07'0 0.0
2017-Sep-17 07:00N 26°05' W 080°07'0 0.0
2017-Sep-17 06:30N 26°05' W 080°07'0 0.0
2017-Sep-17 06:00N 26°05' W 080°07'0 0.0
2017-Sep-17 05:30N 26°05' W 080°07'0 0.0
2017-Sep-17 05:00N 26°05' W 080°07'0 0.0
2017-Sep-17 04:30N 26°05' W 080°07'0 0.0
2017-Sep-17 04:00N 26°05' W 080°07'0 0.0
2017-Sep-17 03:30N 26°05' W 080°07'0 0.0
2017-Sep-17 03:00N 26°05' W 080°07'0 0.0
2017-Sep-17 02:30N 26°05' W 080°07'0 0.0
2017-Sep-17 01:57N 26°05' W 080°07'0 0.0
2017-Sep-17 01:30N 26°05' W 080°07'0 0.0
2017-Sep-17 00:57N 26°05' W 080°07'0 0.0
2017-Sep-17 00:30N 26°05' W 080°07'0 0.0
2017-Sep-17 00:00N 26°05' W 080°07'0 0.0
2017-Sep-16 23:30N 26°05' W 080°07'0 0.0
2017-Sep-16 23:00N 26°05' W 080°07'0 0.0
2017-Sep-16 22:30N 26°05' W 080°07'0 0.0
2017-Sep-16 22:00N 26°05' W 080°07'0 0.0
2017-Sep-16 21:30N 26°05' W 080°07'0 0.0
2017-Sep-16 20:57N 26°05' W 080°07'0 0.0
2017-Sep-16 20:27N 26°05' W 080°07'0 0.0
2017-Sep-16 20:00N 26°05' W 080°07'0 0.0
2017-Sep-16 19:30N 26°05' W 080°07'0 0.0
2017-Sep-16 19:00N 26°05' W 080°07'0 0.0
2017-Sep-16 18:30N 26°05' W 080°07'0 0.0
2017-Sep-16 18:00N 26°05' W 080°07'2 4.4
2017-Sep-16 17:31N 26°06' W 080°05'3 6.7
2017-Sep-16 17:00N 26°05' W 080°01'2 3.1
2017-Sep-16 16:30N 26°04' W 079°60'2 3.3
2017-Sep-16 16:00N 26°06' W 080°00'2 3.2
2017-Sep-16 15:30N 26°07' W 079°59'1 1.5
2017-Sep-16 15:00N 26°06' W 079°59'1 1.3
2017-Sep-16 14:30N 26°06' W 079°59'1 1.6
2017-Sep-16 14:00N 26°05' W 079°58'1 1.5
2017-Sep-16 13:30N 26°04' W 079°58'0 1.0
2017-Sep-16 13:00N 26°04' W 079°58'0 0.9
2017-Sep-16 12:30N 26°04' W 079°58'2 4.9
2017-Sep-16 12:00N 26°06' W 079°59'1 1.4
2017-Sep-16 11:30N 26°06' W 079°60'1 1.4
2017-Sep-16 11:01N 26°06' W 079°60'2 4.6
2017-Sep-16 10:30N 26°04' W 079°58'4 7.5
2017-Sep-16 10:00N 26°02' W 079°54'4 7.4
2017-Sep-16 09:30N 26°01' W 079°51'4 7.3
2017-Sep-16 09:00N 25°60' W 079°47'4 7.3
2017-Sep-16 08:30N 25°58' W 079°43'5 9.3
2017-Sep-16 08:00N 25°54' W 079°40'612.6
2017-Sep-16 07:30N 25°48' W 079°39'612.6
2017-Sep-16 07:00N 25°42' W 079°38'712.4
2017-Sep-16 06:26N 25°35' W 079°38'  
2017-Sep-12 06:19N 29°49' W 093°21'310.5
2017-Sep-12 06:01N 29°52' W 093°21'5 9.4
2017-Sep-12 05:29N 29°57' W 093°20'4 8.1
2017-Sep-12 05:00N 30°01' W 093°20'4 7.9
2017-Sep-12 04:31N 30°05' W 093°20'4 7.3
2017-Sep-12 04:01N 30°08' W 093°20'2 4.3
2017-Sep-12 03:31N 30°10' W 093°19'3 5.0
2017-Sep-12 03:01N 30°12' W 093°17'1 3.0
2017-Sep-12 02:30N 30°13' W 093°15'0 0.0
2017-Sep-12 01:58N 30°13' W 093°15'0 0.0
2017-Sep-12 01:28N 30°13' W 093°15'0 0.0
2017-Sep-12 00:58N 30°13' W 093°15'0 0.0
2017-Sep-12 00:28N 30°13' W 093°15'0 0.0
2017-Sep-11 23:55N 30°13' W 093°15'0 0.0
2017-Sep-11 23:28N 30°13' W 093°15'0 0.0
2017-Sep-11 22:58N 30°13' W 093°15'0 0.0
2017-Sep-11 22:28N 30°13' W 093°15'0 0.0
2017-Sep-11 21:58N 30°13' W 093°15'0 0.0
2017-Sep-11 21:28N 30°13' W 093°15'0 0.0
2017-Sep-11 20:58N 30°13' W 093°15'0 0.0
2017-Sep-11 20:28N 30°13' W 093°15'0 0.0
2017-Sep-11 19:58N 30°13' W 093°15'0 0.0
2017-Sep-11 19:28N 30°13' W 093°15'0 0.0
2017-Sep-11 18:58N 30°13' W 093°15'0 0.0
2017-Sep-11 18:28N 30°13' W 093°15'0 0.0
2017-Sep-11 17:55N 30°13' W 093°15'0 0.0
2017-Sep-11 17:28N 30°13' W 093°15'0 0.0
2017-Sep-11 16:55N 30°13' W 093°15'0 0.0
2017-Sep-11 16:28N 30°13' W 093°15'0 0.0
2017-Sep-11 15:58N 30°13' W 093°15'0 0.0
2017-Sep-11 15:28N 30°13' W 093°15'0 0.0
2017-Sep-11 14:52N 30°13' W 093°15'0 0.0
2017-Sep-11 14:28N 30°13' W 093°15'0 0.0
2017-Sep-11 13:58N 30°13' W 093°15'0 0.0
2017-Sep-11 13:25N 30°13' W 093°15'0 0.0
2017-Sep-11 12:01N 30°13' W 093°15'0 0.0
2017-Sep-11 11:55N 30°13' W 093°15'0 0.0
2017-Sep-11 11:28N 30°13' W 093°15'0 0.0
2017-Sep-11 10:58N 30°13' W 093°15'0 0.0
2017-Sep-11 10:10N 30°13' W 093°15'0 0.0
2017-Sep-11 09:55N 30°13' W 093°15'0 0.0
2017-Sep-11 09:28N 30°13' W 093°15'0 0.0
2017-Sep-11 08:58N 30°13' W 093°15'0 0.0
2017-Sep-11 08:28N 30°13' W 093°16'0 0.0
2017-Sep-11 07:58N 30°13' W 093°15'0 0.0
2017-Sep-11 07:28N 30°13' W 093°15'0 0.0
2017-Sep-11 06:37N 30°13' W 093°15'0 0.0
2017-Sep-11 05:34N 30°13' W 093°15'0 0.0
2017-Sep-11 05:28N 30°13' W 093°15'0 0.0
2017-Sep-11 04:58N 30°13' W 093°15'0 0.0
2017-Sep-11 04:28N 30°13' W 093°15'0 0.0
2017-Sep-11 03:52N 30°13' W 093°15'0 0.0
2017-Sep-11 03:28N 30°13' W 093°15'0 0.0
2017-Sep-11 02:55N 30°13' W 093°15'0 0.0
2017-Sep-11 02:28N 30°13' W 093°15'0 0.0
2017-Sep-11 01:55N 30°13' W 093°15'0 0.0
2017-Sep-11 01:28N 30°13' W 093°15'0 0.0
2017-Sep-11 00:58N 30°13' W 093°15'0 0.0
2017-Sep-11 00:28N 30°13' W 093°15'0 0.0
2017-Sep-10 23:58N 30°13' W 093°15'0 0.0
2017-Sep-10 23:28N 30°13' W 093°15'0 0.0
2017-Sep-10 22:58N 30°13' W 093°15'0 0.0
2017-Sep-10 22:25N 30°13' W 093°15'0 0.0
2017-Sep-10 21:58N 30°13' W 093°15'0 0.0
2017-Sep-10 21:25N 30°13' W 093°15'0 0.0
2017-Sep-10 20:55N 30°13' W 093°15'0 0.0
2017-Sep-10 20:28N 30°13' W 093°15'0 0.0
2017-Sep-10 19:58N 30°13' W 093°15'0 0.0
2017-Sep-10 19:28N 30°13' W 093°15'0 0.0
2017-Sep-10 18:58N 30°13' W 093°15'0 0.0
2017-Sep-10 18:28N 30°13' W 093°15'0 0.0
2017-Sep-10 17:58N 30°13' W 093°15'0 0.0
2017-Sep-10 17:28N 30°13' W 093°15'0 0.0
2017-Sep-10 16:58N 30°13' W 093°15'0 0.0
2017-Sep-10 16:28N 30°13' W 093°15'0 0.0
2017-Sep-10 15:58N 30°13' W 093°15'0 0.0
2017-Sep-10 15:25N 30°13' W 093°15'0 0.0
2017-Sep-10 14:58N 30°13' W 093°15'0 0.0
2017-Sep-10 13:58N 30°13' W 093°15'0 0.0
2017-Sep-10 12:49N 30°13' W 093°15'0 0.0
2017-Sep-10 12:28N 30°13' W 093°15'0 0.0
2017-Sep-10 10:16N 30°13' W 093°15'0 0.0
2017-Sep-10 09:58N 30°13' W 093°15'0 0.0
2017-Sep-10 09:28N 30°13' W 093°15'0 0.0
2017-Sep-10 08:55N 30°13' W 093°15'0 0.0
2017-Sep-10 08:28N 30°13' W 093°16'0 0.0
2017-Sep-10 07:58N 30°13' W 093°15'0 0.0
2017-Sep-10 07:28N 30°13' W 093°15'0 0.0
2017-Sep-10 06:58N 30°13' W 093°15'0 0.0
2017-Sep-10 06:28N 30°13' W 093°15'0 0.0
2017-Sep-10 05:55N 30°13' W 093°15'0 0.0
2017-Sep-10 05:28N 30°13' W 093°15'0 0.0
2017-Sep-10 04:58N 30°13' W 093°15'0 0.0
2017-Sep-10 04:25N 30°13' W 093°15'0 0.0
2017-Sep-10 03:58N 30°13' W 093°15'0 0.0
2017-Sep-10 03:28N 30°13' W 093°15'0 0.0
2017-Sep-10 02:58N 30°13' W 093°15'0 0.0
2017-Sep-10 02:28N 30°13' W 093°15'  

Dump ship's entire track history